createdAt,value
2023-02-12T00:12:13.892Z,9.70
2023-02-12T00:27:16.321Z,9.80
2023-02-12T00:42:18.630Z,9.90
2023-02-12T00:57:21.345Z,10.10
2023-02-12T01:12:25.303Z,10.00
2023-02-12T01:27:30.395Z,9.90
2023-02-12T01:42:32.859Z,9.90
2023-02-12T01:57:42.771Z,10.10
2023-02-12T02:13:04.605Z,10.00
2023-02-12T02:28:28.959Z,10.10
2023-02-12T02:43:40.879Z,10.20
2023-02-12T02:59:14.663Z,10.20
2023-02-12T03:14:36.781Z,10.30
2023-02-12T03:29:39.365Z,9.90
2023-02-12T03:44:54.148Z,10.20
2023-02-12T04:00:03.513Z,10.10
2023-02-12T04:15:28.474Z,10.00
2023-02-12T04:31:11.670Z,10.20
2023-02-12T04:46:14.243Z,10.20
2023-02-12T05:01:16.663Z,10.30
2023-02-12T05:16:19.858Z,10.10
2023-02-12T05:31:22.553Z,10.10
2023-02-12T05:46:25.006Z,10.10
2023-02-12T06:01:29.947Z,9.70
2023-02-12T06:16:33.254Z,9.80
2023-02-12T06:31:36.749Z,10.00
2023-02-12T06:46:39.624Z,10.10
2023-02-12T07:01:42.276Z,10.20
2023-02-12T07:16:44.601Z,10.00
2023-02-12T07:31:47.143Z,9.50
2023-02-12T07:46:50.210Z,9.40
2023-02-12T08:01:53.257Z,9.40
2023-02-12T08:16:55.764Z,9.40
2023-02-12T08:32:01.311Z,9.70
2023-02-12T08:47:05.920Z,9.60
2023-02-12T09:02:10.831Z,9.40
2023-02-12T09:17:14.258Z,9.10
2023-02-12T09:32:16.600Z,9.60
2023-02-12T09:47:48.604Z,9.60
2023-02-12T10:02:53.468Z,9.50
2023-02-12T10:18:16.754Z,9.10
2023-02-12T10:33:37.795Z,9.00
2023-02-12T10:48:45.908Z,9.40
2023-02-12T11:03:48.689Z,9.50
2023-02-12T11:18:59.520Z,9.40
2023-02-12T11:34:04.633Z,9.30
2023-02-12T11:49:09.308Z,9.30
2023-02-12T12:04:16.322Z,9.30
2023-02-12T12:19:52.328Z,9.40
2023-02-12T12:34:54.657Z,9.10
2023-02-12T12:50:25.178Z,9.30
2023-02-12T13:05:57.199Z,10.00
2023-02-12T13:21:25.356Z,9.60
2023-02-12T13:36:27.794Z,9.50
2023-02-12T13:51:33.268Z,9.60
2023-02-12T14:06:35.747Z,9.70
2023-02-12T14:21:38.619Z,9.50
2023-02-12T14:36:43.796Z,9.60
2023-02-12T14:52:07.641Z,9.70
2023-02-12T15:07:17.493Z,9.90
2023-02-12T15:22:24.558Z,9.70
2023-02-12T15:37:30.068Z,9.80
2023-02-12T15:52:35.912Z,9.80
2023-02-12T16:07:39.447Z,9.80
2023-02-12T16:22:44.121Z,9.90
2023-02-12T16:37:50.195Z,9.90
2023-02-12T16:53:01.470Z,9.90
2023-02-12T17:08:03.855Z,10.00
2023-02-12T17:23:06.855Z,10.10
2023-02-12T17:38:09.430Z,10.00
2023-02-12T17:53:13.024Z,10.20
2023-02-12T18:08:15.613Z,10.30
2023-02-12T18:23:17.977Z,10.50
2023-02-12T18:38:20.785Z,10.40
2023-02-12T18:53:23.221Z,9.80
2023-02-12T19:08:25.631Z,10.00
2023-02-12T19:23:27.922Z,9.30
2023-02-12T19:38:30.421Z,8.90
2023-02-12T19:53:32.904Z,7.90
2023-02-12T20:08:39.954Z,7.70
2023-02-12T20:23:42.752Z,7.40
2023-02-12T20:38:45.037Z,7.80
2023-02-12T20:53:48.286Z,7.50
2023-02-12T21:08:51.209Z,7.50
2023-02-12T21:23:56.865Z,7.50
2023-02-12T21:38:59.928Z,7.40
2023-02-12T21:54:05.595Z,7.10
2023-02-12T22:09:10.776Z,6.60
2023-02-12T22:24:15.812Z,6.80
2023-02-12T22:39:18.608Z,7.30
2023-02-12T22:54:21.573Z,8.10
2023-02-12T23:09:24.043Z,8.10
2023-02-12T23:24:26.628Z,8.10
2023-02-12T23:39:28.994Z,7.90
2023-02-12T23:54:31.803Z,7.80
